Cidade Ocidental, Brazil
Current Conditions -  °F | °C
As of 2:00 PM on Monday 26 Jan 2015 (Local Time) from SBBR Reporting Station
Broken Clouds Broken Clouds  
Wind Chill: 75°   Ceiling: 3000
Heat Index: 75°   Visibility: 6mi
Dew Point: 61°   Wind: 9mph
Humidity: 61%   Direction: 10°N
Pressure: 30.09"   Gusts: NA
Location:  16.08°S, 47.93°W
Report Text: SBBR 261600Z 01008KT 9999 BKN030 FEW036TCU SCT080 24/16 Q1019
Loading
Personal Weather Stations






























Interactive Weather Map New forecast layout! Learn more

10-Day Weather Forecast

Advertisements
Track Severe Weather on mobile